createdAt,value
2023-08-26T00:00:29.809Z,1.33
2023-08-26T00:02:58.183Z,1.33
2023-08-26T00:05:27.474Z,1.45
2023-08-26T00:07:55.584Z,1.60
2023-08-26T00:10:24.126Z,1.50
2023-08-26T00:12:53.201Z,1.15
2023-08-26T00:15:21.136Z,0.80
2023-08-26T00:17:49.141Z,0.68
2023-08-26T00:20:17.123Z,0.68
2023-08-26T00:22:46.849Z,0.73
2023-08-26T00:25:14.753Z,0.60
2023-08-26T00:27:42.635Z,0.40
2023-08-26T00:30:11.294Z,0.52
2023-08-26T00:32:39.229Z,0.30
2023-08-26T00:35:07.620Z,0.60
2023-08-26T00:37:35.587Z,0.57
2023-08-26T00:40:05.338Z,0.60
2023-08-26T00:42:37.688Z,0.70
2023-08-26T00:45:07.962Z,0.50
2023-08-26T00:47:36.256Z,0.75
2023-08-26T00:50:04.523Z,0.68
2023-08-26T00:52:32.638Z,0.80
2023-08-26T00:55:00.567Z,0.60
2023-08-26T00:57:29.875Z,0.90
2023-08-26T00:59:58.009Z,0.60
2023-08-26T01:02:26.080Z,0.43
2023-08-26T01:04:54.524Z,0.40
2023-08-26T01:07:22.458Z,0.68
2023-08-26T01:09:50.396Z,0.40
2023-08-26T01:12:27.414Z,0.80
2023-08-26T01:15:02.538Z,0.57
2023-08-26T01:17:31.576Z,0.50
2023-08-26T01:20:00.722Z,0.50
2023-08-26T01:22:30.807Z,0.43
2023-08-26T01:25:00.673Z,0.60
2023-08-26T01:27:28.592Z,0.60
2023-08-26T01:29:57.659Z,0.68
2023-08-26T01:32:34.145Z,0.50
2023-08-26T01:35:04.420Z,0.40
2023-08-26T01:37:32.824Z,0.50
2023-08-26T01:40:05.200Z,0.93
2023-08-26T01:42:35.838Z,0.60
2023-08-26T01:45:04.131Z,1.27
2023-08-26T01:47:34.353Z,0.80
2023-08-26T01:50:02.306Z,1.10
2023-08-26T01:52:30.298Z,1.02
2023-08-26T01:54:58.270Z,1.10
2023-08-26T01:57:27.522Z,0.90
2023-08-26T01:59:55.477Z,1.23
2023-08-26T02:02:23.472Z,1.20
2023-08-26T02:04:51.386Z,1.02
2023-08-26T02:07:19.921Z,0.80
2023-08-26T02:09:47.889Z,1.00
2023-08-26T02:12:15.909Z,0.93
2023-08-26T02:14:45.395Z,1.10
2023-08-26T02:17:13.458Z,0.98
2023-08-26T02:19:41.507Z,0.77
2023-08-26T02:22:10.351Z,1.15
2023-08-26T02:24:38.253Z,1.35
2023-08-26T02:27:06.897Z,1.10
2023-08-26T02:29:34.841Z,0.75
2023-08-26T02:32:04.731Z,0.90
2023-08-26T02:34:32.672Z,2.03
2023-08-26T02:37:00.566Z,1.25
2023-08-26T02:39:28.484Z,0.90
2023-08-26T02:41:56.398Z,1.35
2023-08-26T02:44:24.461Z,1.00
2023-08-26T02:46:52.378Z,1.13
2023-08-26T02:49:21.576Z,1.08
2023-08-26T02:51:49.455Z,1.08
2023-08-26T02:54:17.330Z,1.50
2023-08-26T02:56:45.217Z,1.10
2023-08-26T02:59:13.147Z,1.95
2023-08-26T03:01:41.513Z,1.10
2023-08-26T03:04:09.526Z,1.33
2023-08-26T03:06:38.953Z,1.30
2023-08-26T03:09:06.896Z,1.40
2023-08-26T03:11:36.738Z,1.35
2023-08-26T03:14:06.018Z,1.23
2023-08-26T03:16:33.928Z,1.65
2023-08-26T03:19:01.888Z,1.38
2023-08-26T03:21:31.035Z,1.23
2023-08-26T03:24:00.273Z,1.15
2023-08-26T03:26:28.191Z,1.15
2023-08-26T03:28:56.097Z,1.27
2023-08-26T03:31:24.022Z,1.67
2023-08-26T03:33:51.936Z,1.55
2023-08-26T03:36:19.839Z,1.50
2023-08-26T03:38:47.818Z,1.40
2023-08-26T03:41:17.142Z,1.38
2023-08-26T03:43:45.137Z,1.73
2023-08-26T03:46:13.054Z,1.70
2023-08-26T03:48:41.172Z,1.50
2023-08-26T03:51:09.127Z,1.88
2023-08-26T03:53:37.225Z,1.52
2023-08-26T03:56:06.119Z,1.55
2023-08-26T03:58:36.561Z,1.25
2023-08-26T04:01:06.475Z,1.00
2023-08-26T04:03:35.021Z,1.20
2023-08-26T04:06:04.611Z,1.40
2023-08-26T04:08:33.595Z,1.45
2023-08-26T04:11:03.509Z,1.58
2023-08-26T04:13:31.907Z,1.52
2023-08-26T04:16:04.533Z,1.42
2023-08-26T04:18:33.083Z,1.90
2023-08-26T04:21:01.034Z,1.70
2023-08-26T04:23:28.974Z,1.73
2023-08-26T04:26:01.892Z,1.50
2023-08-26T04:28:30.564Z,1.73
2023-08-26T04:31:00.054Z,1.58
2023-08-26T04:33:30.483Z,1.17
2023-08-26T04:35:58.506Z,1.42
2023-08-26T04:38:26.486Z,1.58
2023-08-26T04:40:54.492Z,2.10
2023-08-26T04:43:22.461Z,1.25
2023-08-26T04:45:50.382Z,1.33
2023-08-26T04:48:19.462Z,1.65
2023-08-26T04:50:48.820Z,1.60
2023-08-26T04:53:16.698Z,1.23
2023-08-26T04:55:44.653Z,1.70
2023-08-26T04:58:12.568Z,1.45
2023-08-26T05:00:43.444Z,1.60
2023-08-26T05:05:42.488Z,1.50
2023-08-26T05:10:39.820Z,1.55
2023-08-26T05:13:07.938Z,1.60
2023-08-26T05:15:35.865Z,1.33
2023-08-26T05:18:04.471Z,1.35
2023-08-26T05:20:32.472Z,1.58
2023-08-26T05:23:00.599Z,1.70
2023-08-26T05:25:30.145Z,1.27
2023-08-26T05:27:59.454Z,1.50
2023-08-26T05:30:27.654Z,1.38
2023-08-26T05:32:55.643Z,1.50
2023-08-26T05:35:23.714Z,1.33
2023-08-26T05:37:51.641Z,1.25
2023-08-26T05:40:19.806Z,1.70
2023-08-26T05:42:49.053Z,1.50
2023-08-26T05:45:17.019Z,1.40
2023-08-26T05:47:44.953Z,1.45
2023-08-26T05:50:12.851Z,1.70
2023-08-26T05:52:40.766Z,1.15
2023-08-26T05:55:10.300Z,1.38
2023-08-26T05:57:38.261Z,1.35
2023-08-26T06:00:09.063Z,1.52
2023-08-26T06:02:37.011Z,1.30
2023-08-26T06:05:05.112Z,1.20
2023-08-26T06:07:32.967Z,1.17
2023-08-26T06:10:00.918Z,1.38
2023-08-26T06:12:28.865Z,1.52
2023-08-26T06:14:56.749Z,1.70
2023-08-26T06:17:26.097Z,1.55
2023-08-26T06:19:54.033Z,1.58
2023-08-26T06:22:21.913Z,1.33
2023-08-26T06:24:49.767Z,1.48
2023-08-26T06:27:17.828Z,1.02
2023-08-26T06:29:46.799Z,1.40
2023-08-26T06:32:14.726Z,1.08
2023-08-26T06:34:43.995Z,1.13
2023-08-26T06:37:11.983Z,0.90
2023-08-26T06:39:39.884Z,1.20
2023-08-26T06:42:08.388Z,0.80
2023-08-26T06:44:36.303Z,0.73
2023-08-26T06:47:04.451Z,1.23
2023-08-26T06:49:32.484Z,0.95
2023-08-26T06:52:01.792Z,1.10
2023-08-26T06:54:30.704Z,0.80
2023-08-26T06:57:00.150Z,0.88
2023-08-26T06:59:28.002Z,0.80
2023-08-26T07:01:55.955Z,0.77
2023-08-26T07:04:23.938Z,0.65
2023-08-26T07:06:53.966Z,0.70
2023-08-26T07:09:24.233Z,0.85
2023-08-26T07:11:52.274Z,0.57
2023-08-26T07:14:20.390Z,0.77
2023-08-26T07:16:48.339Z,0.80
2023-08-26T07:19:16.308Z,0.50
2023-08-26T07:21:44.248Z,0.57
2023-08-26T07:24:12.650Z,0.70
2023-08-26T07:26:42.047Z,0.60
2023-08-26T07:29:10.235Z,0.98
2023-08-26T07:31:41.314Z,0.45
2023-08-26T07:34:09.356Z,0.40
2023-08-26T07:36:37.471Z,0.60
2023-08-26T07:39:05.590Z,0.50
2023-08-26T07:41:33.611Z,0.50
2023-08-26T07:44:06.150Z,0.77
2023-08-26T07:49:09.755Z,0.47
2023-08-26T07:51:37.670Z,0.65
2023-08-26T07:54:06.039Z,0.60
2023-08-26T07:56:35.228Z,0.65
2023-08-26T07:59:04.540Z,0.60
2023-08-26T08:01:32.547Z,0.70
2023-08-26T08:04:00.552Z,0.43
2023-08-26T08:06:28.522Z,0.70
2023-08-26T08:08:56.463Z,0.52
2023-08-26T08:11:24.537Z,0.65
2023-08-26T08:13:52.454Z,0.77
2023-08-26T08:16:21.769Z,0.50
2023-08-26T08:18:49.802Z,0.80
2023-08-26T08:21:17.729Z,0.77
2023-08-26T08:23:47.004Z,0.60
2023-08-26T08:26:15.239Z,0.52
2023-08-26T08:28:44.136Z,0.60
2023-08-26T08:31:12.208Z,0.60
2023-08-26T08:33:41.474Z,0.77
2023-08-26T08:36:09.466Z,0.65
2023-08-26T08:38:37.429Z,0.90
2023-08-26T08:41:05.410Z,0.73
2023-08-26T08:43:36.704Z,0.57
2023-08-26T08:46:04.945Z,0.68
2023-08-26T08:48:34.999Z,1.00
2023-08-26T08:51:05.283Z,0.43
2023-08-26T08:53:33.629Z,0.45
2023-08-26T08:56:02.657Z,0.65
2023-08-26T08:58:31.674Z,0.50
2023-08-26T09:01:00.744Z,0.40
2023-08-26T09:03:28.833Z,0.60
2023-08-26T09:05:57.187Z,0.43
2023-08-26T09:08:28.187Z,0.30
2023-08-26T09:10:56.777Z,0.20
2023-08-26T09:13:24.757Z,0.40
2023-08-26T09:15:53.606Z,0.28
2023-08-26T09:18:21.537Z,0.32
2023-08-26T09:20:49.630Z,0.30
2023-08-26T09:23:17.535Z,0.30
2023-08-26T09:25:55.330Z,0.20
2023-08-26T09:28:24.648Z,0.15
2023-08-26T09:31:04.575Z,0.10
2023-08-26T09:33:33.835Z,0.47
2023-08-26T09:41:11.749Z,0.20
2023-08-26T09:43:42.862Z,0.17
2023-08-26T09:46:11.010Z,0.40
2023-08-26T09:48:39.015Z,0.40
2023-08-26T09:51:09.852Z,0.10
2023-08-26T09:56:07.013Z,0.20
2023-08-26T09:58:36.307Z,0.20
2023-08-26T10:01:05.793Z,0.30
2023-08-26T10:03:36.004Z,0.40
2023-08-26T10:06:05.251Z,0.30
2023-08-26T10:08:37.269Z,0.45
2023-08-26T10:11:09.442Z,0.38
2023-08-26T10:13:40.096Z,0.17
2023-08-26T10:16:12.245Z,0.28
2023-08-26T10:18:47.769Z,0.30
2023-08-26T10:21:17.078Z,0.10
2023-08-26T10:23:45.182Z,0.20
2023-08-26T10:26:14.036Z,0.40
2023-08-26T10:28:44.097Z,0.20
2023-08-26T10:31:14.994Z,0.25
2023-08-26T10:34:01.273Z,0.20
2023-08-26T10:36:29.762Z,0.10
2023-08-26T10:38:58.544Z,0.30
2023-08-26T10:41:26.768Z,0.43
2023-08-26T10:43:57.416Z,0.30
2023-08-26T10:46:34.822Z,0.50
2023-08-26T10:49:04.331Z,0.10
2023-08-26T10:51:34.870Z,0.38
2023-08-26T10:54:04.436Z,0.20
2023-08-26T10:56:34.463Z,0.20
2023-08-26T10:59:07.315Z,0.10
2023-08-26T11:01:37.730Z,0.40
2023-08-26T11:04:06.708Z,0.30
2023-08-26T11:06:38.309Z,0.30
2023-08-26T11:09:06.804Z,0.30
2023-08-26T11:11:35.212Z,0.40
2023-08-26T11:14:04.788Z,0.45
2023-08-26T11:16:32.867Z,0.30
2023-08-26T11:19:01.826Z,0.30
2023-08-26T11:21:29.881Z,0.57
2023-08-26T11:24:00.447Z,0.20
2023-08-26T11:26:29.451Z,0.30
2023-08-26T11:29:01.706Z,0.22
2023-08-26T11:31:31.079Z,0.30
2023-08-26T11:33:59.106Z,0.25
2023-08-26T11:36:27.982Z,0.50
2023-08-26T11:38:56.734Z,0.30
2023-08-26T11:41:26.493Z,0.60
2023-08-26T11:43:54.361Z,0.43
2023-08-26T11:46:22.417Z,0.60
2023-08-26T11:48:52.155Z,0.40
2023-08-26T11:51:20.786Z,0.32
2023-08-26T11:53:50.693Z,0.20
2023-08-26T11:56:18.701Z,0.50
2023-08-26T11:58:46.647Z,0.50
2023-08-26T12:01:15.536Z,0.45
2023-08-26T12:03:46.300Z,0.57
2023-08-26T12:06:17.754Z,0.50
2023-08-26T12:08:52.799Z,0.50
2023-08-26T12:11:21.832Z,0.82
2023-08-26T12:13:49.803Z,0.47
2023-08-26T12:16:17.801Z,0.50
2023-08-26T12:18:47.156Z,0.40
2023-08-26T12:21:16.461Z,0.43
2023-08-26T12:23:44.401Z,0.40
2023-08-26T12:26:13.907Z,0.43
2023-08-26T12:28:42.324Z,0.43
2023-08-26T12:31:10.737Z,0.52
2023-08-26T12:33:53.681Z,0.38
2023-08-26T12:36:27.931Z,0.40
2023-08-26T12:38:55.849Z,0.50
2023-08-26T12:41:23.781Z,0.35
2023-08-26T12:43:52.235Z,0.20
2023-08-26T12:46:20.272Z,0.40
2023-08-26T12:48:55.170Z,0.50
2023-08-26T12:51:24.282Z,0.40
2023-08-26T12:53:53.889Z,0.30
2023-08-26T12:56:22.265Z,0.38
2023-08-26T12:58:50.618Z,0.52
2023-08-26T13:01:18.640Z,0.68
2023-08-26T13:03:46.755Z,0.32
2023-08-26T13:06:15.238Z,0.40
2023-08-26T13:08:43.270Z,0.38
2023-08-26T13:11:12.498Z,0.35
2023-08-26T13:13:40.509Z,0.50
2023-08-26T13:16:11.069Z,0.40
2023-08-26T13:18:44.241Z,0.80
2023-08-26T13:21:12.712Z,0.55
2023-08-26T13:23:40.742Z,0.35
2023-08-26T13:26:08.700Z,0.30
2023-08-26T13:28:38.140Z,0.50
2023-08-26T13:31:06.187Z,0.50
2023-08-26T13:33:34.069Z,0.47
2023-08-26T13:36:02.597Z,0.40
2023-08-26T13:38:30.607Z,0.47
2023-08-26T13:40:58.667Z,0.30
2023-08-26T13:43:26.746Z,0.43
2023-08-26T13:45:56.066Z,0.35
2023-08-26T13:48:24.088Z,0.40
2023-08-26T13:50:52.899Z,0.50
2023-08-26T13:53:20.976Z,0.45
2023-08-26T13:55:56.025Z,0.50
2023-08-26T13:58:23.922Z,0.35
2023-08-26T14:00:52.126Z,0.40
2023-08-26T14:03:21.908Z,0.30
2023-08-26T14:05:51.796Z,0.40
2023-08-26T14:08:20.035Z,0.50
2023-08-26T14:10:47.890Z,0.43
2023-08-26T14:13:15.897Z,0.50
2023-08-26T14:15:44.979Z,0.40
2023-08-26T14:18:13.125Z,0.50
2023-08-26T14:20:42.383Z,0.40
2023-08-26T14:23:10.273Z,0.28
2023-08-26T14:25:42.605Z,0.30
2023-08-26T14:28:10.572Z,0.40
2023-08-26T14:30:38.950Z,0.30
2023-08-26T14:33:07.208Z,0.52
2023-08-26T14:35:35.236Z,0.20
2023-08-26T14:38:05.561Z,0.47
2023-08-26T14:40:33.511Z,0.30
2023-08-26T14:43:01.476Z,0.55
2023-08-26T14:45:29.497Z,0.38
2023-08-26T14:47:57.682Z,0.35
2023-08-26T14:50:25.872Z,0.32
2023-08-26T14:52:53.814Z,0.30
2023-08-26T14:55:23.340Z,0.40
2023-08-26T14:57:51.423Z,0.60
2023-08-26T15:00:19.424Z,0.45
2023-08-26T15:02:47.563Z,0.28
2023-08-26T15:05:16.006Z,0.28
2023-08-26T15:07:45.302Z,0.40
2023-08-26T15:10:14.391Z,0.30
2023-08-26T15:12:46.167Z,0.50
2023-08-26T15:15:14.153Z,0.30
2023-08-26T15:17:42.123Z,0.47
2023-08-26T15:20:10.866Z,0.57
2023-08-26T15:22:39.403Z,0.40
2023-08-26T15:25:09.942Z,0.57
2023-08-26T15:27:38.487Z,0.32
2023-08-26T15:30:09.540Z,0.60
2023-08-26T15:32:37.731Z,0.45
2023-08-26T15:35:06.190Z,0.47
2023-08-26T15:37:34.691Z,0.30
2023-08-26T15:40:06.154Z,0.20
2023-08-26T15:42:34.808Z,0.43
2023-08-26T15:45:02.946Z,0.47
2023-08-26T15:47:32.345Z,0.50
2023-08-26T15:50:00.961Z,0.40
2023-08-26T15:52:29.675Z,0.40
2023-08-26T15:54:57.552Z,0.50
2023-08-26T15:57:25.565Z,0.32
2023-08-26T15:59:55.561Z,0.40
2023-08-26T16:02:23.538Z,0.52
2023-08-26T16:04:52.839Z,0.52
2023-08-26T16:07:20.807Z,0.30
2023-08-26T16:09:48.804Z,0.20
2023-08-26T16:12:17.704Z,0.20
2023-08-26T16:14:45.992Z,0.38
2023-08-26T16:17:14.036Z,0.45
2023-08-26T16:19:42.032Z,0.45
2023-08-26T16:22:11.417Z,0.60
2023-08-26T16:24:39.419Z,0.40
2023-08-26T16:27:10.186Z,0.30
2023-08-26T16:29:38.489Z,0.35
2023-08-26T16:32:07.835Z,0.43
2023-08-26T16:34:38.525Z,0.80
2023-08-26T16:37:07.532Z,0.50
2023-08-26T16:39:36.909Z,0.40
2023-08-26T16:42:05.386Z,0.30
2023-08-26T16:44:34.679Z,0.55
2023-08-26T16:47:03.041Z,0.30
2023-08-26T16:49:31.035Z,0.63
2023-08-26T16:52:00.656Z,0.65
2023-08-26T16:54:28.869Z,0.38
2023-08-26T16:56:59.503Z,0.38
2023-08-26T16:59:27.673Z,0.40
2023-08-26T17:01:55.737Z,0.35
2023-08-26T17:04:23.676Z,0.68
2023-08-26T17:06:51.753Z,0.60
2023-08-26T17:09:20.672Z,0.40
2023-08-26T17:11:48.746Z,0.60
2023-08-26T17:14:18.032Z,0.40
2023-08-26T17:16:46.072Z,0.40
2023-08-26T17:19:14.034Z,0.40
2023-08-26T17:21:42.145Z,0.40
2023-08-26T17:24:10.170Z,0.98
2023-08-26T17:26:39.111Z,0.40
2023-08-26T17:29:07.149Z,0.55
2023-08-26T17:31:36.421Z,0.43
2023-08-26T17:34:04.432Z,0.52
2023-08-26T17:36:33.326Z,0.30
2023-08-26T17:39:01.334Z,0.40
2023-08-26T17:41:29.363Z,0.52
2023-08-26T17:43:57.328Z,0.38
2023-08-26T17:46:25.344Z,0.40
2023-08-26T17:48:54.613Z,0.95
2023-08-26T17:51:22.637Z,0.82
2023-08-26T17:53:50.585Z,0.70
2023-08-26T17:56:21.178Z,0.55
2023-08-26T17:58:49.134Z,0.85
2023-08-26T18:01:17.082Z,0.52
2023-08-26T18:03:45.103Z,0.82
2023-08-26T18:06:14.583Z,0.50
2023-08-26T18:08:42.513Z,0.52
2023-08-26T18:11:10.661Z,0.60
2023-08-26T18:13:38.620Z,0.60
2023-08-26T18:16:06.632Z,0.43
2023-08-26T18:18:34.508Z,0.50
2023-08-26T18:21:02.485Z,0.60
2023-08-26T18:23:31.769Z,0.50
2023-08-26T18:25:59.735Z,0.63
2023-08-26T18:28:27.659Z,0.77
2023-08-26T18:30:55.819Z,0.50
2023-08-26T18:33:23.861Z,0.57
2023-08-26T18:35:51.813Z,0.60
2023-08-26T18:38:22.874Z,0.65
2023-08-26T18:40:57.057Z,0.68
2023-08-26T18:43:25.145Z,0.32
2023-08-26T18:45:53.321Z,0.50
2023-08-26T18:48:22.186Z,0.52
2023-08-26T18:50:59.377Z,0.63
2023-08-26T18:53:27.635Z,0.77
2023-08-26T18:55:57.469Z,0.90
2023-08-26T18:58:26.164Z,0.60
2023-08-26T19:00:56.442Z,0.65
2023-08-26T19:03:24.737Z,0.80
2023-08-26T19:05:53.262Z,0.77
2023-08-26T19:08:21.667Z,0.70
2023-08-26T19:10:49.660Z,0.70
2023-08-26T19:13:18.950Z,0.63
2023-08-26T19:15:46.903Z,0.82
2023-08-26T19:18:14.822Z,0.60
2023-08-26T19:20:42.790Z,0.82
2023-08-26T19:23:10.789Z,0.90
2023-08-26T19:25:39.196Z,0.90
2023-08-26T19:28:07.559Z,1.08
2023-08-26T19:30:36.833Z,0.70
2023-08-26T19:33:05.062Z,0.47
2023-08-26T19:35:33.027Z,0.85
2023-08-26T19:38:00.989Z,0.65
2023-08-26T19:40:29.265Z,0.63
2023-08-26T19:42:57.519Z,0.60
2023-08-26T19:45:26.255Z,0.70
2023-08-26T19:47:55.663Z,0.70
2023-08-26T19:50:23.744Z,0.38
2023-08-26T19:52:51.698Z,0.93
2023-08-26T19:55:19.683Z,0.85
2023-08-26T19:57:47.774Z,0.70
2023-08-26T20:00:16.060Z,0.50
2023-08-26T20:02:44.347Z,0.30
2023-08-26T20:05:13.674Z,0.60
2023-08-26T20:07:41.714Z,0.60
2023-08-26T20:10:12.780Z,0.60
2023-08-26T20:12:40.700Z,0.50
2023-08-26T20:15:09.556Z,0.50
2023-08-26T20:17:38.722Z,0.40
2023-08-26T20:20:08.006Z,0.80
2023-08-26T20:22:38.590Z,0.70
2023-08-26T20:25:07.316Z,0.82
2023-08-26T20:27:35.332Z,0.75
2023-08-26T20:30:03.532Z,0.57
2023-08-26T20:32:31.478Z,0.70
2023-08-26T20:34:59.620Z,0.50
2023-08-26T20:37:27.649Z,0.63
2023-08-26T20:39:57.178Z,0.52
2023-08-26T20:42:28.235Z,0.70
2023-08-26T20:44:58.306Z,0.90
2023-08-26T20:47:26.297Z,0.80
2023-08-26T20:49:55.906Z,0.75
2023-08-26T20:52:26.881Z,0.68
2023-08-26T20:57:25.738Z,0.73
2023-08-26T20:59:53.684Z,0.50
2023-08-26T21:02:22.078Z,0.40
2023-08-26T21:04:50.084Z,0.40
2023-08-26T21:07:18.002Z,0.88
2023-08-26T21:09:46.821Z,0.63
2023-08-26T21:12:16.191Z,0.70
2023-08-26T21:14:44.160Z,1.02
2023-08-26T21:17:14.248Z,0.90
2023-08-26T21:19:42.329Z,0.70
2023-08-26T21:22:10.253Z,0.60
2023-08-26T21:24:38.232Z,0.70
2023-08-26T21:27:06.302Z,0.68
2023-08-26T21:29:35.761Z,0.70
2023-08-26T21:32:03.821Z,0.73
2023-08-26T21:34:31.812Z,0.90
2023-08-26T21:37:00.947Z,0.68
2023-08-26T21:39:28.904Z,0.73
2023-08-26T21:41:56.815Z,0.63
2023-08-26T21:44:24.902Z,0.63
2023-08-26T21:46:54.289Z,0.50
2023-08-26T21:49:22.225Z,0.80
2023-08-26T21:51:50.156Z,0.60
2023-08-26T21:54:18.024Z,0.70
2023-08-26T21:56:46.181Z,0.85
2023-08-26T21:59:15.414Z,0.55
2023-08-26T22:01:43.305Z,0.73
2023-08-26T22:04:12.521Z,0.85
2023-08-26T22:06:43.893Z,0.50
2023-08-26T22:09:11.938Z,0.63
2023-08-26T22:11:40.173Z,0.90
2023-08-26T22:14:08.137Z,0.70
2023-08-26T22:16:36.095Z,0.90
2023-08-26T22:19:04.110Z,0.73
2023-08-26T22:21:33.301Z,0.70
2023-08-26T22:24:01.313Z,0.98
2023-08-26T22:26:29.347Z,0.55
2023-08-26T22:28:58.079Z,0.50
2023-08-26T22:31:27.121Z,0.70
2023-08-26T22:33:55.214Z,0.60
2023-08-26T22:36:23.192Z,0.73
2023-08-26T22:38:55.099Z,0.50
2023-08-26T22:41:25.756Z,0.80
2023-08-26T22:43:53.717Z,0.77
2023-08-26T22:46:21.653Z,0.80
2023-08-26T22:48:49.599Z,0.60
2023-08-26T22:51:17.623Z,0.70
2023-08-26T22:53:45.482Z,0.70
2023-08-26T22:56:15.191Z,0.77
2023-08-26T22:58:43.272Z,0.82
2023-08-26T23:01:11.961Z,0.95
2023-08-26T23:03:40.030Z,0.90
2023-08-26T23:06:08.042Z,0.70
2023-08-26T23:08:36.140Z,0.80
2023-08-26T23:11:04.390Z,1.08
2023-08-26T23:13:33.856Z,0.90
2023-08-26T23:16:02.097Z,0.98
2023-08-26T23:18:30.515Z,0.75
2023-08-26T23:20:59.344Z,0.60
2023-08-26T23:23:28.002Z,1.02
2023-08-26T23:25:55.988Z,0.65
2023-08-26T23:28:24.660Z,0.95
2023-08-26T23:30:54.267Z,1.08
2023-08-26T23:33:22.672Z,0.70
2023-08-26T23:35:50.822Z,0.77
2023-08-26T23:38:18.910Z,1.40
2023-08-26T23:40:47.143Z,0.98
2023-08-26T23:43:15.443Z,0.95
2023-08-26T23:45:43.611Z,1.00
2023-08-26T23:48:13.633Z,0.85
2023-08-26T23:50:41.800Z,0.53
2023-08-26T23:53:09.873Z,0.50
2023-08-26T23:55:38.031Z,0.63
2023-08-26T23:58:06.440Z,0.47
